Time;durP1;ratioP1;P1;durP2;ratioP2;P2;SDS_P1;SDS_P2;PMS_P1;PMS_P2;Temp;Humidity;BMP_temperature;BMP_pressure;BME280_temperature;BME280_humidity;BME280_pressure;Samples;Min_cycle;Max_cycle;Signal;HPM_P1;HPM_P2
2021/11/22 00:01:14;;;;;;;35.00;12.10;;;;;;;;;;5052886;28;20227;-36
2021/11/22 00:03:39;;;;;;;35.55;13.38;;;;;;;;;;5053202;28;20036;-36
2021/11/22 00:06:05;;;;;;;38.25;11.48;;;;;;;;;;5053160;28;20029;-36
2021/11/22 00:08:31;;;;;;;26.95;10.13;;;;;;;;;;5053161;28;20494;-36
2021/11/22 00:10:56;;;;;;;36.97;12.23;;;;;;;;;;5052763;28;20494;-36
2021/11/22 00:13:21;;;;;;;32.92;12.10;;;;;;;;;;5052718;28;20024;-36
2021/11/22 00:15:47;;;;;;;29.42;11.70;;;;;;;;;;5052981;28;20025;-36
2021/11/22 00:18:13;;;;;;;32.63;12.18;;;;;;;;;;5052481;28;20590;-36
2021/11/22 00:20:38;;;;;;;28.35;10.75;;;;;;;;;;5052631;28;20039;-36
2021/11/22 00:23:04;;;;;;;35.45;11.93;;;;;;;;;;5052435;28;20056;-36
2021/11/22 00:25:29;;;;;;;40.60;13.63;;;;;;;;;;5052516;28;20075;-36
2021/11/22 00:27:55;;;;;;;37.97;11.32;;;;;;;;;;5052525;28;20013;-36
2021/11/22 00:30:34;;;;;;;29.65;9.93;;;;;;;;;;5034637;28;20032;-38
2021/11/22 00:33:02;;;;;;;32.72;13.10;;;;;;;;;;5034432;28;20037;-36
2021/11/22 00:35:49;;;;;;;48.40;13.27;;;;;;;;;;5021153;28;20025;-36
2021/11/22 00:38:14;;;;;;;40.30;12.30;;;;;;;;;;5052549;28;20057;-37
2021/11/22 00:40:39;;;;;;;42.85;12.45;;;;;;;;;;5052260;28;20837;-36
2021/11/22 00:43:05;;;;;;;33.30;11.20;;;;;;;;;;5052042;28;20036;-36
2021/11/22 00:45:32;;;;;;;35.22;13.07;;;;;;;;;;5052032;28;20112;-36
2021/11/22 00:47:59;;;;;;;41.88;12.30;;;;;;;;;;5052102;28;20031;-36
2021/11/22 00:50:25;;;;;;;39.78;11.27;;;;;;;;;;5051958;28;20066;-36
2021/11/22 00:52:51;;;;;;;40.22;11.98;;;;;;;;;;5051931;28;20078;-36
2021/11/22 00:55:16;;;;;;;35.92;12.35;;;;;;;;;;5051977;28;20415;-36
2021/11/22 00:57:42;;;;;;;36.63;12.55;;;;;;;;;;5051848;28;20043;-37
2021/11/22 01:00:10;;;;;;;37.65;13.13;;;;;;;;;;5051945;28;20132;-36
2021/11/22 01:02:36;;;;;;;48.05;14.20;;;;;;;;;;5034079;28;20528;-36
2021/11/22 01:05:03;;;;;;;34.53;12.13;;;;;;;;;;5051741;28;20128;-36
2021/11/22 01:07:28;;;;;;;43.50;14.73;;;;;;;;;;5051849;28;20059;-36
2021/11/22 01:09:54;;;;;;;28.98;11.43;;;;;;;;;;5051961;28;20103;-36
2021/11/22 01:12:19;;;;;;;32.78;11.48;;;;;;;;;;5051693;28;20134;-36
2021/11/22 01:14:45;;;;;;;43.35;13.93;;;;;;;;;;5052023;28;20029;-36
2021/11/22 01:17:10;;;;;;;37.72;10.35;;;;;;;;;;5051602;28;20510;-36
2021/11/22 01:19:36;;;;;;;45.05;13.18;;;;;;;;;;5051603;28;20498;-37
2021/11/22 01:22:02;;;;;;;43.97;13.00;;;;;;;;;;5051697;28;20099;-36
2021/11/22 01:24:27;;;;;;;35.90;12.55;;;;;;;;;;5051485;28;20100;-36
2021/11/22 01:26:52;;;;;;;38.03;12.25;;;;;;;;;;5033972;28;20032;-36
2021/11/22 01:29:18;;;;;;;33.13;11.73;;;;;;;;;;5051348;28;20585;-36
2021/11/22 01:31:44;;;;;;;35.03;12.02;;;;;;;;;;5051479;28;20036;-36
2021/11/22 01:34:09;;;;;;;34.30;12.52;;;;;;;;;;5033616;28;20025;-36
2021/11/22 01:36:34;;;;;;;38.67;12.52;;;;;;;;;;5051306;28;20454;-36
2021/11/22 01:39:00;;;;;;;38.60;12.60;;;;;;;;;;5050739;28;20104;-36
2021/11/22 01:41:25;;;;;;;41.15;11.07;;;;;;;;;;5051490;28;20108;-36
2021/11/22 01:43:51;;;;;;;44.90;12.38;;;;;;;;;;5051296;28;20068;-36
2021/11/22 01:46:18;;;;;;;38.75;12.70;;;;;;;;;;5051087;28;20029;-36
2021/11/22 01:48:43;;;;;;;44.53;12.50;;;;;;;;;;5051429;28;20025;-36
2021/11/22 01:51:09;;;;;;;28.58;10.68;;;;;;;;;;5051286;28;20426;-36
2021/11/22 01:53:34;;;;;;;36.78;12.55;;;;;;;;;;5051236;28;20471;-36
2021/11/22 01:55:59;;;;;;;39.28;12.93;;;;;;;;;;5051060;28;20075;-36
2021/11/22 01:58:25;;;;;;;40.78;12.35;;;;;;;;;;5051172;28;20368;-36
2021/11/22 02:00:52;;;;;;;39.08;13.00;;;;;;;;;;5032949;28;20139;-36
2021/11/22 02:03:18;;;;;;;36.65;12.52;;;;;;;;;;5051005;28;20036;-36
2021/11/22 02:05:44;;;;;;;42.30;14.93;;;;;;;;;;5051025;28;20025;-36
2021/11/22 02:08:10;;;;;;;47.45;13.07;;;;;;;;;;5050948;28;20028;-39
2021/11/22 02:10:36;;;;;;;51.67;14.70;;;;;;;;;;5051054;28;20021;-36
2021/11/22 02:13:02;;;;;;;40.42;11.85;;;;;;;;;;5051058;28;20041;-36
2021/11/22 02:15:27;;;;;;;30.65;12.02;;;;;;;;;;5051212;28;20041;-36
2021/11/22 02:17:54;;;;;;;40.80;13.48;;;;;;;;;;5051237;28;20144;-36
2021/11/22 02:20:23;;;;;;;43.08;14.90;;;;;;;;;;5051106;28;20383;-36
2021/11/22 02:22:50;;;;;;;43.38;12.10;;;;;;;;;;5050863;28;20044;-36
2021/11/22 02:25:16;;;;;;;39.00;11.27;;;;;;;;;;5050739;28;20207;-36
2021/11/22 02:27:43;;;;;;;40.90;14.25;;;;;;;;;;5050923;28;20475;-36
2021/11/22 02:30:09;;;;;;;35.97;12.45;;;;;;;;;;5050958;28;20490;-36
2021/11/22 02:32:35;;;;;;;37.55;13.10;;;;;;;;;;5050704;28;20032;-36
2021/11/22 02:35:01;;;;;;;53.25;13.70;;;;;;;;;;5050748;28;20464;-36
2021/11/22 02:37:27;;;;;;;36.33;12.82;;;;;;;;;;5050588;28;20086;-36
2021/11/22 02:39:52;;;;;;;30.50;12.70;;;;;;;;;;5051076;28;20041;-36
2021/11/22 02:42:40;;;;;;;36.88;12.70;;;;;;;;;;5050590;28;20029;-36
2021/11/22 02:45:06;;;;;;;42.70;13.00;;;;;;;;;;5050602;28;20025;-36
2021/11/22 02:47:31;;;;;;;37.08;12.02;;;;;;;;;;5050739;28;20020;-36
2021/11/22 02:49:57;;;;;;;23.73;11.38;;;;;;;;;;5051755;28;20044;-36
2021/11/22 02:52:22;;;;;;;34.75;13.27;;;;;;;;;;5054162;28;20170;-36
2021/11/22 02:54:48;;;;;;;33.13;12.32;;;;;;;;;;5054302;28;20040;-36
2021/11/22 02:57:13;;;;;;;20.60;10.23;;;;;;;;;;5054486;28;20024;-36
2021/11/22 02:59:40;;;;;;;30.42;10.90;;;;;;;;;;5054074;28;20398;-36
2021/11/22 03:02:10;;;;;;;35.65;10.10;;;;;;;;;;5054063;28;20436;-38
2021/11/22 03:04:38;;;;;;;37.08;11.90;;;;;;;;;;5054169;28;20418;-36
2021/11/22 03:07:03;;;;;;;35.45;11.27;;;;;;;;;;5054005;28;20017;-36
2021/11/22 03:09:29;;;;;;;33.05;12.18;;;;;;;;;;5054059;28;20173;-37
2021/11/22 03:11:55;;;;;;;26.83;9.43;;;;;;;;;;5052639;28;20056;-36
2021/11/22 03:14:21;;;;;;;28.35;10.93;;;;;;;;;;5053888;28;20079;-36
2021/11/22 03:16:46;;;;;;;34.03;10.02;;;;;;;;;;5053963;28;20017;-36
2021/11/22 03:19:12;;;;;;;27.55;10.52;;;;;;;;;;5053937;28;20024;-36
2021/11/22 03:21:37;;;;;;;23.80;12.00;;;;;;;;;;5053861;28;20522;-36
2021/11/22 03:24:03;;;;;;;29.80;11.13;;;;;;;;;;5053894;28;20121;-36
2021/11/22 03:26:28;;;;;;;29.83;11.15;;;;;;;;;;5053719;28;20609;-36
2021/11/22 03:28:54;;;;;;;30.90;10.52;;;;;;;;;;5053975;28;20029;-36
2021/11/22 03:31:19;;;;;;;33.08;11.23;;;;;;;;;;5053812;28;20025;-35
2021/11/22 03:33:47;;;;;;;42.47;14.65;;;;;;;;;;5053472;28;20037;-36
2021/11/22 03:36:12;;;;;;;29.70;10.65;;;;;;;;;;5053465;28;20035;-36
2021/11/22 03:38:38;;;;;;;40.88;12.18;;;;;;;;;;5053445;28;20116;-36
2021/11/22 03:41:10;;;;;;;31.02;10.68;;;;;;;;;;5053370;28;20032;-36
2021/11/22 03:46:37;;;;;;;33.95;12.52;;;;;;;;;;4991651;28;20038;-36
2021/11/22 03:49:03;;;;;;;34.40;11.55;;;;;;;;;;5040677;28;20076;-36
2021/11/22 03:51:28;;;;;;;30.52;11.65;;;;;;;;;;5053278;28;20056;-36
2021/11/22 03:53:54;;;;;;;31.77;11.07;;;;;;;;;;5053019;28;20029;-36
2021/11/22 03:56:19;;;;;;;31.20;10.65;;;;;;;;;;5053097;28;20040;-36
2021/11/22 03:58:45;;;;;;;30.48;10.98;;;;;;;;;;5053080;28;20021;-37
2021/11/22 04:01:11;;;;;;;31.15;11.10;;;;;;;;;;5052423;28;20049;-36
2021/11/22 04:03:37;;;;;;;34.55;11.50;;;;;;;;;;5052946;28;20094;-36
2021/11/22 04:06:02;;;;;;;34.90;10.40;;;;;;;;;;5034961;28;20101;-36
2021/11/22 04:08:27;;;;;;;25.08;9.90;;;;;;;;;;5052968;28;20013;-36
2021/11/22 04:10:53;;;;;;;23.55;9.90;;;;;;;;;;5052849;28;20119;-36
2021/11/22 04:13:19;;;;;;;26.13;9.70;;;;;;;;;;5052672;28;20239;-36
2021/11/22 04:15:44;;;;;;;27.00;10.35;;;;;;;;;;5052801;28;20017;-36
2021/11/22 04:18:10;;;;;;;22.98;10.55;;;;;;;;;;5052893;28;20443;-36
2021/11/22 04:20:35;;;;;;;27.35;10.77;;;;;;;;;;5052795;28;20025;-36
2021/11/22 04:23:02;;;;;;;27.40;9.98;;;;;;;;;;5052512;28;20017;-36
2021/11/22 04:25:28;;;;;;;31.10;10.98;;;;;;;;;;5052563;28;20033;-36
2021/11/22 04:27:53;;;;;;;24.23;11.05;;;;;;;;;;5052530;28;20020;-36
2021/11/22 04:30:19;;;;;;;24.40;10.70;;;;;;;;;;5052562;28;20029;-36
2021/11/22 04:32:44;;;;;;;27.30;8.75;;;;;;;;;;5052442;28;20365;-36
2021/11/22 04:35:11;;;;;;;21.30;8.90;;;;;;;;;;5052372;28;20055;-36
2021/11/22 04:37:37;;;;;;;23.58;9.25;;;;;;;;;;5052552;28;20101;-36
2021/11/22 04:40:04;;;;;;;24.27;9.38;;;;;;;;;;5052254;28;20606;-36
2021/11/22 04:42:29;;;;;;;25.00;9.95;;;;;;;;;;5052180;28;20395;-36
2021/11/22 04:44:55;;;;;;;23.20;8.48;;;;;;;;;;5052520;28;20032;-36
2021/11/22 04:47:20;;;;;;;27.83;10.00;;;;;;;;;;5052086;28;20497;-36
2021/11/22 04:49:47;;;;;;;24.63;10.85;;;;;;;;;;5052077;28;20047;-36
2021/11/22 04:52:13;;;;;;;28.80;11.07;;;;;;;;;;5051908;28;20409;-36
2021/11/22 04:54:39;;;;;;;18.63;8.43;;;;;;;;;;5052285;28;20037;-36
2021/11/22 04:57:05;;;;;;;26.30;9.52;;;;;;;;;;5052017;28;20020;-36
2021/11/22 04:59:31;;;;;;;21.75;8.32;;;;;;;;;;5034467;28;20083;-37
2021/11/22 05:01:57;;;;;;;31.63;10.23;;;;;;;;;;5051709;28;20048;-36
2021/11/22 05:04:23;;;;;;;24.77;9.65;;;;;;;;;;5052096;28;20036;-36
2021/11/22 05:06:48;;;;;;;26.45;9.05;;;;;;;;;;5034212;28;20139;-36
2021/11/22 05:09:15;;;;;;;23.25;9.85;;;;;;;;;;5051969;28;20044;-36
2021/11/22 05:11:42;;;;;;;26.88;9.55;;;;;;;;;;5051835;28;20378;-36
2021/11/22 05:14:09;;;;;;;28.95;9.70;;;;;;;;;;5050801;28;20083;-36
2021/11/22 05:16:35;;;;;;;26.17;10.85;;;;;;;;;;5051695;28;20032;-36
2021/11/22 05:19:01;;;;;;;25.58;10.93;;;;;;;;;;5051805;28;20025;-36
2021/11/22 05:21:26;;;;;;;22.88;10.88;;;;;;;;;;5051560;28;20493;-36
2021/11/22 05:23:54;;;;;;;30.10;9.68;;;;;;;;;;5051814;28;20039;-36
2021/11/22 05:26:20;;;;;;;19.92;8.55;;;;;;;;;;5051404;28;20033;-36
2021/11/22 05:28:45;;;;;;;20.63;9.63;;;;;;;;;;5051456;28;20128;-36
2021/11/22 05:31:11;;;;;;;22.83;9.43;;;;;;;;;;5051401;28;20025;-36
2021/11/22 05:33:36;;;;;;;27.70;9.10;;;;;;;;;;5051574;28;20033;-36
2021/11/22 05:36:02;;;;;;;32.97;12.95;;;;;;;;;;5051280;28;20013;-36
2021/11/22 05:38:27;;;;;;;71.18;27.27;;;;;;;;;;5051257;28;20029;-36
2021/11/22 05:40:52;;;;;;;25.40;12.35;;;;;;;;;;5051433;28;20059;-36
2021/11/22 05:43:18;;;;;;;28.52;10.23;;;;;;;;;;5051125;28;20029;-36
2021/11/22 05:45:43;;;;;;;28.73;10.75;;;;;;;;;;5033763;28;20086;-36
2021/11/22 05:48:09;;;;;;;20.88;9.80;;;;;;;;;;5051111;28;20491;-36
2021/11/22 05:50:35;;;;;;;21.88;10.23;;;;;;;;;;5051119;28;20021;-36
2021/11/22 05:53:02;;;;;;;21.45;9.55;;;;;;;;;;5051115;28;20045;-36
2021/11/22 05:55:35;;;;;;;26.70;11.63;;;;;;;;;;5051454;28;20151;-36
2021/11/22 05:58:02;;;;;;;28.67;9.48;;;;;;;;;;5051098;28;20163;-37
2021/11/22 06:00:27;;;;;;;21.48;9.85;;;;;;;;;;5050924;28;20049;-36
2021/11/22 06:02:53;;;;;;;26.15;9.20;;;;;;;;;;5050989;28;20035;-36
2021/11/22 06:05:18;;;;;;;18.65;9.68;;;;;;;;;;5051332;28;20365;-38
2021/11/22 06:07:44;;;;;;;24.20;8.80;;;;;;;;;;5051139;28;20025;-36
2021/11/22 06:10:09;;;;;;;23.20;8.93;;;;;;;;;;5051172;28;20058;-36
2021/11/22 06:12:35;;;;;;;20.45;8.35;;;;;;;;;;5050858;28;20113;-37
2021/11/22 06:15:00;;;;;;;19.08;7.85;;;;;;;;;;5051221;28;20037;-36
2021/11/22 06:17:26;;;;;;;23.33;9.07;;;;;;;;;;5050899;28;20475;-36
2021/11/22 06:19:52;;;;;;;23.83;8.80;;;;;;;;;;5051021;28;20021;-36
2021/11/22 06:22:18;;;;;;;18.25;7.75;;;;;;;;;;5050788;28;20033;-36
2021/11/22 06:24:43;;;;;;;16.75;7.53;;;;;;;;;;5053627;28;20025;-36
2021/11/22 06:27:09;;;;;;;23.98;9.13;;;;;;;;;;5055025;28;20049;-36
2021/11/22 06:29:38;;;;;;;16.40;7.38;;;;;;;;;;5054884;28;20467;-36
2021/11/22 06:32:10;;;;;;;19.15;9.13;;;;;;;;;;5054380;28;20128;-36
2021/11/22 06:34:35;;;;;;;22.05;10.52;;;;;;;;;;5054803;28;20116;-36
2021/11/22 06:37:01;;;;;;;21.05;9.77;;;;;;;;;;5054790;28;20470;-36
2021/11/22 06:39:26;;;;;;;24.75;8.88;;;;;;;;;;5054481;28;20033;-36
2021/11/22 06:41:52;;;;;;;25.60;9.15;;;;;;;;;;5054582;28;20075;-36
2021/11/22 06:44:20;;;;;;;19.40;7.95;;;;;;;;;;5054508;28;20044;-36
2021/11/22 06:46:48;;;;;;;26.92;9.10;;;;;;;;;;5054405;28;20059;-36
2021/11/22 06:49:14;;;;;;;24.38;8.40;;;;;;;;;;5054655;28;20108;-36
2021/11/22 06:51:39;;;;;;;18.63;7.70;;;;;;;;;;5054353;28;20681;-36
2021/11/22 06:54:05;;;;;;;21.88;9.15;;;;;;;;;;5054242;28;20068;-36
2021/11/22 06:56:30;;;;;;;19.23;7.85;;;;;;;;;;5054355;28;20021;-36
2021/11/22 06:58:56;;;;;;;20.58;7.35;;;;;;;;;;5054188;28;20033;-36
2021/11/22 07:01:21;;;;;;;24.02;8.38;;;;;;;;;;5054035;28;20056;-36
2021/11/22 07:03:47;;;;;;;21.55;8.68;;;;;;;;;;5054124;28;20029;-36
2021/11/22 07:06:12;;;;;;;26.15;8.07;;;;;;;;;;5054131;28;20021;-36
2021/11/22 07:08:38;;;;;;;21.10;8.50;;;;;;;;;;5036212;28;20148;-36
2021/11/22 07:11:04;;;;;;;20.73;9.32;;;;;;;;;;5054005;28;20024;-36
2021/11/22 07:13:31;;;;;;;20.45;7.93;;;;;;;;;;5036083;28;20045;-36
2021/11/22 07:15:57;;;;;;;18.38;8.65;;;;;;;;;;5054144;28;20021;-36
2021/11/22 07:18:23;;;;;;;15.27;7.20;;;;;;;;;;5054112;28;20033;-35
2021/11/22 07:20:49;;;;;;;26.02;9.45;;;;;;;;;;5053835;28;20398;-36
2021/11/22 07:23:15;;;;;;;21.30;8.60;;;;;;;;;;5035862;28;20067;-36
2021/11/22 07:25:41;;;;;;;21.25;8.07;;;;;;;;;;5054073;28;20017;-36
2021/11/22 07:28:06;;;;;;;16.73;8.18;;;;;;;;;;5053626;28;20071;-36
2021/11/22 07:30:32;;;;;;;21.02;8.75;;;;;;;;;;5053653;28;20060;-35
2021/11/22 07:32:57;;;;;;;18.17;8.45;;;;;;;;;;5053593;28;20037;-36
2021/11/22 07:35:23;;;;;;;18.23;8.10;;;;;;;;;;5052529;28;20055;-35
2021/11/22 07:37:50;;;;;;;18.13;7.40;;;;;;;;;;5053541;28;20120;-36
2021/11/22 07:40:20;;;;;;;21.23;6.95;;;;;;;;;;5053453;28;20092;-36
2021/11/22 07:42:46;;;;;;;18.48;7.45;;;;;;;;;;5053278;28;20044;-35
2021/11/22 07:45:11;;;;;;;14.00;6.97;;;;;;;;;;5053625;28;20029;-36
2021/11/22 07:47:37;;;;;;;23.50;7.05;;;;;;;;;;5053310;28;20116;-36
2021/11/22 07:50:03;;;;;;;19.25;7.13;;;;;;;;;;5053285;28;20048;-36
2021/11/22 07:52:29;;;;;;;25.48;7.72;;;;;;;;;;5053174;28;20044;-35
2021/11/22 07:54:54;;;;;;;18.80;7.47;;;;;;;;;;5053267;28;20112;-36
2021/11/22 07:57:20;;;;;;;20.25;8.73;;;;;;;;;;5053323;28;20242;-35
2021/11/22 07:59:46;;;;;;;16.98;7.57;;;;;;;;;;5052934;28;20448;-35
2021/11/22 08:02:12;;;;;;;14.70;6.18;;;;;;;;;;5053048;28;20104;-36
2021/11/22 08:04:38;;;;;;;19.95;7.55;;;;;;;;;;5053111;28;20056;-36
2021/11/22 08:07:11;;;;;;;15.02;7.78;;;;;;;;;;5052914;28;20067;-35
2021/11/22 08:09:43;;;;;;;16.50;6.50;;;;;;;;;;5053052;28;20462;-35
2021/11/22 08:14:34;;;;;;;18.10;9.10;;;;;;;;;;5053169;28;20387;-36
2021/11/22 08:16:59;;;;;;;16.77;7.80;;;;;;;;;;5052775;28;20434;-35
2021/11/22 08:19:25;;;;;;;17.25;7.40;;;;;;;;;;5052996;28;20020;-36
2021/11/22 08:21:51;;;;;;;15.02;6.78;;;;;;;;;;5052686;28;20060;-36
2021/11/22 08:24:16;;;;;;;17.45;5.82;;;;;;;;;;5052799;28;20029;-35
2021/11/22 08:26:42;;;;;;;18.17;6.70;;;;;;;;;;5052884;28;20037;-36
2021/11/22 08:29:08;;;;;;;16.27;6.43;;;;;;;;;;5052473;28;20345;-36
2021/11/22 08:31:33;;;;;;;15.93;6.82;;;;;;;;;;5052546;28;20037;-36
2021/11/22 08:33:58;;;;;;;25.70;7.38;;;;;;;;;;5034453;28;20491;-36
2021/11/22 08:36:25;;;;;;;18.15;6.65;;;;;;;;;;5052270;28;20029;-36
2021/11/22 08:38:51;;;;;;;21.80;6.65;;;;;;;;;;5052463;28;20032;-36
2021/11/22 08:41:17;;;;;;;19.00;7.30;;;;;;;;;;5052188;28;20107;-36
2021/11/22 08:43:42;;;;;;;18.42;7.15;;;;;;;;;;5052155;28;20162;-36
2021/11/22 08:46:08;;;;;;;18.83;7.10;;;;;;;;;;5052165;28;20032;-36
2021/11/22 08:48:33;;;;;;;12.55;6.00;;;;;;;;;;5051985;28;20029;-36
2021/11/22 08:51:02;;;;;;;16.40;6.72;;;;;;;;;;5052245;28;20028;-36
2021/11/22 08:53:27;;;;;;;20.38;6.70;;;;;;;;;;5051885;28;20021;-36
2021/11/22 08:55:53;;;;;;;22.05;7.85;;;;;;;;;;5052074;28;20040;-36
2021/11/22 08:58:18;;;;;;;14.30;7.00;;;;;;;;;;5051963;28;20475;-36
2021/11/22 09:00:44;;;;;;;15.80;6.05;;;;;;;;;;5051679;28;20048;-36
2021/11/22 09:03:09;;;;;;;17.55;7.55;;;;;;;;;;5051787;28;20061;-36
2021/11/22 09:05:35;;;;;;;25.02;6.88;;;;;;;;;;5051866;28;20028;-36
2021/11/22 09:08:01;;;;;;;12.93;7.15;;;;;;;;;;5051710;28;20078;-36
2021/11/22 09:10:26;;;;;;;18.42;7.05;;;;;;;;;;5052020;28;20036;-36
2021/11/22 09:12:52;;;;;;;12.95;5.68;;;;;;;;;;5051623;28;20537;-36
2021/11/22 09:15:17;;;;;;;13.88;7.07;;;;;;;;;;5051615;28;20064;-36
2021/11/22 09:17:43;;;;;;;14.07;6.20;;;;;;;;;;5051750;28;20031;-36
2021/11/22 09:20:09;;;;;;;14.60;6.80;;;;;;;;;;5051812;28;20436;-37
2021/11/22 09:22:36;;;;;;;12.77;6.65;;;;;;;;;;5051570;28;20103;-36
2021/11/22 09:25:04;;;;;;;18.73;7.57;;;;;;;;;;5051599;28;20104;-36
2021/11/22 09:27:29;;;;;;;16.35;5.57;;;;;;;;;;5051487;28;20467;-36
2021/11/22 09:29:55;;;;;;;16.52;6.53;;;;;;;;;;5051536;28;20063;-36
2021/11/22 09:32:20;;;;;;;12.88;5.10;;;;;;;;;;5051249;28;20049;-36
2021/11/22 09:34:46;;;;;;;16.65;6.90;;;;;;;;;;5051733;28;20061;-36
2021/11/22 09:37:11;;;;;;;13.27;5.75;;;;;;;;;;5051309;28;20020;-36
2021/11/22 09:39:37;;;;;;;14.68;7.18;;;;;;;;;;5051431;28;20028;-36
2021/11/22 09:42:03;;;;;;;14.45;6.15;;;;;;;;;;5051640;28;20050;-36
2021/11/22 09:44:28;;;;;;;15.77;7.53;;;;;;;;;;5051166;28;20067;-36
2021/11/22 09:46:54;;;;;;;14.00;6.38;;;;;;;;;;5051347;28;20051;-36
2021/11/22 09:49:20;;;;;;;16.00;5.95;;;;;;;;;;5051208;28;20072;-36
2021/11/22 09:51:46;;;;;;;14.90;5.78;;;;;;;;;;5051042;28;20029;-36
2021/11/22 09:54:12;;;;;;;10.90;5.40;;;;;;;;;;5051366;28;20037;-36
2021/11/22 09:56:38;;;;;;;11.43;5.90;;;;;;;;;;5051157;28;20111;-36
2021/11/22 09:59:04;;;;;;;16.38;6.80;;;;;;;;;;5054185;28;20039;-36
2021/11/22 10:01:34;;;;;;;12.90;5.85;;;;;;;;;;5057515;28;20480;-36
2021/11/22 10:04:02;;;;;;;13.43;6.07;;;;;;;;;;5057959;28;20032;-36
2021/11/22 10:06:28;;;;;;;12.70;5.53;;;;;;;;;;5057659;28;20036;-36
2021/11/22 10:08:53;;;;;;;13.63;6.35;;;;;;;;;;5039884;28;20036;-36
2021/11/22 10:11:19;;;;;;;13.13;6.22;;;;;;;;;;5057673;28;20025;-36
2021/11/22 10:13:46;;;;;;;10.60;4.90;;;;;;;;;;5057608;28;20079;-36
2021/11/22 10:16:11;;;;;;;11.90;5.35;;;;;;;;;;5057606;28;20103;-36
2021/11/22 10:18:43;;;;;;;14.05;6.18;;;;;;;;;;5057635;28;20443;-36
2021/11/22 10:21:10;;;;;;;14.18;6.35;;;;;;;;;;5057736;28;20375;-36
2021/11/22 10:23:39;;;;;;;14.80;5.78;;;;;;;;;;5057897;28;20021;-35
2021/11/22 10:26:04;;;;;;;13.63;5.47;;;;;;;;;;5057816;28;20024;-36
2021/11/22 10:28:32;;;;;;;12.48;5.20;;;;;;;;;;5057735;28;20538;-36
2021/11/22 10:31:05;;;;;;;13.40;5.53;;;;;;;;;;5057649;28;20037;-36
2021/11/22 10:33:30;;;;;;;;;;;;;;;;;;5057687;28;20040;-36
2021/11/22 10:35:57;;;;;;;12.93;5.53;;;;;;;;;;5057580;28;20382;-36
2021/11/22 10:38:26;;;;;;;11.45;4.82;;;;;;;;;;5057389;28;20025;-36
2021/11/22 10:40:54;;;;;;;10.57;5.07;;;;;;;;;;5057413;28;20435;-35
2021/11/22 10:43:20;;;;;;;10.32;4.45;;;;;;;;;;5057391;28;20031;-37
2021/11/22 10:45:48;;;;;;;10.82;5.07;;;;;;;;;;5057471;28;20071;-36
2021/11/22 10:48:19;;;;;;;10.93;4.53;;;;;;;;;;5057570;28;20045;-41
2021/11/22 10:51:04;;;;;;;10.75;4.88;;;;;;;;;;5057325;28;20033;-35
2021/11/22 10:53:37;;;;;;;13.57;5.20;;;;;;;;;;5057200;28;20036;-36
2021/11/22 10:56:04;;;;;;;8.68;4.60;;;;;;;;;;5057358;28;20495;-36
2021/11/22 10:58:32;;;;;;;11.15;5.00;;;;;;;;;;5057302;28;20021;-35
2021/11/22 11:00:58;;;;;;;14.00;5.10;;;;;;;;;;5057119;28;20136;-35
2021/11/22 11:03:26;;;;;;;12.15;5.13;;;;;;;;;;5057078;28;20491;-36
2021/11/22 11:05:58;;;;;;;9.20;4.07;;;;;;;;;;5057428;28;20029;-36
2021/11/22 11:08:27;;;;;;;12.75;4.28;;;;;;;;;;5057358;28;20032;-36
2021/11/22 11:11:06;;;;;;;8.30;4.18;;;;;;;;;;5053881;28;20040;-37
2021/11/22 11:13:41;;;;;;;14.05;5.25;;;;;;;;;;5053917;28;20059;-36
2021/11/22 11:16:08;;;;;;;12.68;4.53;;;;;;;;;;5053839;28;20078;-36
2021/11/22 11:18:33;;;;;;;7.30;4.40;;;;;;;;;;5053923;28;20032;-36
2021/11/22 11:20:59;;;;;;;7.95;3.60;;;;;;;;;;5053876;28;20021;-36
2021/11/22 11:23:26;;;;;;;6.90;3.80;;;;;;;;;;5053943;28;20111;-36
2021/11/22 11:25:52;;;;;;;11.30;4.43;;;;;;;;;;5053810;28;20467;-36
2021/11/22 11:28:18;;;;;;;8.13;4.95;;;;;;;;;;5053497;28;20032;-36
2021/11/22 11:30:43;;;;;;;11.98;5.65;;;;;;;;;;5035715;28;20040;-36
2021/11/22 11:33:08;;;;;;;4.43;2.83;;;;;;;;;;5053489;28;20029;-36
2021/11/22 11:35:35;;;;;;;11.32;4.00;;;;;;;;;;5053551;28;20029;-36
2021/11/22 11:38:16;;;;;;;9.25;4.80;;;;;;;;;;5053791;28;20358;-36
2021/11/22 11:40:57;;;;;;;9.23;3.80;;;;;;;;;;5053705;28;20033;-36
2021/11/22 11:43:41;;;;;;;7.50;3.00;;;;;;;;;;5053506;28;20466;-36
2021/11/22 11:46:20;;;;;;;9.20;4.72;;;;;;;;;;5053406;28;20029;-36
2021/11/22 11:49:04;;;;;;;8.68;4.82;;;;;;;;;;5053557;28;20391;-35
2021/11/22 11:51:32;;;;;;;11.02;4.70;;;;;;;;;;5053089;28;20060;-36
2021/11/22 11:54:02;;;;;;;5.85;2.92;;;;;;;;;;5053054;28;20033;-36
2021/11/22 11:56:29;;;;;;;9.35;4.45;;;;;;;;;;5053175;28;20363;-36
2021/11/22 11:59:10;;;;;;;8.20;4.25;;;;;;;;;;5053014;28;20071;-36
2021/11/22 12:01:53;;;;;;;11.35;4.63;;;;;;;;;;5053017;28;20037;-36
2021/11/22 12:04:18;;;;;;;10.05;3.92;;;;;;;;;;5053075;28;20501;-36
2021/11/22 12:06:49;;;;;;;9.48;4.60;;;;;;;;;;5053199;28;20024;-36
2021/11/22 12:09:27;;;;;;;13.77;5.40;;;;;;;;;;5053180;28;20060;-36
2021/11/22 12:11:53;;;;;;;5.80;2.83;;;;;;;;;;5035030;28;20111;-36
2021/11/22 12:14:37;;;;;;;11.50;4.22;;;;;;;;;;5052685;28;20029;-36
2021/11/22 12:17:02;;;;;;;10.45;4.40;;;;;;;;;;5053093;28;20108;-36
2021/11/22 12:19:43;;;;;;;12.75;4.35;;;;;;;;;;5052800;28;20495;-36
2021/11/22 12:22:10;;;;;;;14.10;4.65;;;;;;;;;;5052220;28;20483;-36
2021/11/22 12:24:39;;;;;;;10.60;4.53;;;;;;;;;;5052659;28;20013;-36
2021/11/22 12:27:23;;;;;;;13.80;4.85;;;;;;;;;;5052543;28;20040;-36
2021/11/22 12:29:49;;;;;;;10.43;5.57;;;;;;;;;;5052824;28;20033;-36
2021/11/22 12:32:31;;;;;;;6.15;3.72;;;;;;;;;;5052368;28;20383;-36
2021/11/22 12:34:58;;;;;;;7.72;3.83;;;;;;;;;;5034538;28;20518;-36
2021/11/22 12:37:25;;;;;;;10.23;4.40;;;;;;;;;;5052239;28;20028;-36
2021/11/22 12:39:50;;;;;;;5.28;3.17;;;;;;;;;;5052721;28;20083;-36
2021/11/22 12:42:17;;;;;;;10.50;4.68;;;;;;;;;;5034354;28;20021;-35
2021/11/22 12:45:02;;;;;;;10.27;3.53;;;;;;;;;;5034390;28;20044;-36
2021/11/22 12:47:28;;;;;;;13.70;5.53;;;;;;;;;;5052032;28;20140;-36
2021/11/22 12:50:11;;;;;;;5.93;3.92;;;;;;;;;;5052168;28;20152;-36
2021/11/22 12:52:36;;;;;;;9.10;3.55;;;;;;;;;;5051841;28;20037;-36
2021/11/22 12:55:11;;;;;;;5.30;2.78;;;;;;;;;;5052476;28;20039;-36
2021/11/22 12:57:39;;;;;;;6.78;3.22;;;;;;;;;;5052212;28;20020;-36
2021/11/22 13:00:14;;;;;;;6.28;3.10;;;;;;;;;;5052008;28;20072;-36
2021/11/22 13:02:43;;;;;;;5.07;2.97;;;;;;;;;;5051868;28;20032;-36
2021/11/22 13:05:09;;;;;;;7.03;3.10;;;;;;;;;;5051959;28;20582;-36
2021/11/22 13:07:35;;;;;;;6.35;3.20;;;;;;;;;;5051929;28;20053;-36
2021/11/22 13:10:03;;;;;;;3.92;2.35;;;;;;;;;;5051658;28;20098;-37
2021/11/22 13:12:32;;;;;;;4.25;2.63;;;;;;;;;;5051599;28;20029;-36
2021/11/22 13:15:03;;;;;;;6.35;3.65;;;;;;;;;;5051696;28;20025;-36
2021/11/22 13:17:29;;;;;;;6.88;3.08;;;;;;;;;;5051639;28;20460;-36
2021/11/22 13:19:58;;;;;;;3.70;2.28;;;;;;;;;;5051715;28;20021;-36
2021/11/22 13:22:24;;;;;;;6.15;2.20;;;;;;;;;;5051711;28;20042;-36
2021/11/22 13:24:49;;;;;;;4.18;2.80;;;;;;;;;;5051534;28;20539;-36
2021/11/22 13:27:15;;;;;;;5.22;2.15;;;;;;;;;;5051347;28;20208;-36
2021/11/22 13:29:40;;;;;;;4.15;2.30;;;;;;;;;;5051510;28;20025;-36
2021/11/22 13:32:08;;;;;;;4.03;2.20;;;;;;;;;;5051338;28;20072;-36
2021/11/22 13:34:33;;;;;;;2.97;1.95;;;;;;;;;;5050537;28;20043;-35
2021/11/22 13:37:02;;;;;;;7.47;2.15;;;;;;;;;;5051479;28;20028;-36
2021/11/22 13:39:30;;;;;;;4.50;2.85;;;;;;;;;;5051247;28;20028;-36
2021/11/22 13:41:55;;;;;;;4.13;2.65;;;;;;;;;;5051370;28;20472;-36
2021/11/22 13:44:22;;;;;;;3.65;2.05;;;;;;;;;;5051439;28;20024;-36
2021/11/22 13:46:49;;;;;;;2.70;1.60;;;;;;;;;;5051178;28;20044;-36
2021/11/22 13:49:14;;;;;;;3.28;1.90;;;;;;;;;;5051507;28;20020;-36
2021/11/22 13:51:41;;;;;;;4.47;2.17;;;;;;;;;;5051124;28;20598;-36
2021/11/22 13:54:09;;;;;;;3.38;2.28;;;;;;;;;;5051380;28;20387;-36
2021/11/22 13:56:39;;;;;;;3.63;2.85;;;;;;;;;;5051067;28;20514;-36
2021/11/22 13:59:23;;;;;;;4.45;2.55;;;;;;;;;;5051476;28;20029;-36
2021/11/22 14:01:50;;;;;;;3.50;2.75;;;;;;;;;;5050817;28;20049;-36
2021/11/22 14:04:17;;;;;;;3.50;2.58;;;;;;;;;;5051142;28;20048;-36
2021/11/22 14:06:43;;;;;;;4.15;1.77;;;;;;;;;;5051109;28;20037;-36
2021/11/22 14:09:09;;;;;;;3.28;1.77;;;;;;;;;;5051081;28;20032;-36
2021/11/22 14:11:34;;;;;;;3.10;1.58;;;;;;;;;;5050948;28;20032;-36
2021/11/22 14:14:00;;;;;;;2.28;1.17;;;;;;;;;;5050866;28;20036;-36
2021/11/22 14:16:27;;;;;;;2.83;2.22;;;;;;;;;;5050903;28;20033;-35
2021/11/22 14:18:53;;;;;;;4.28;2.00;;;;;;;;;;5051072;28;20051;-36
2021/11/22 14:21:33;;;;;;;8.63;1.92;;;;;;;;;;5051023;28;20029;-36
2021/11/22 14:24:07;;;;;;;2.65;1.85;;;;;;;;;;5050891;28;20525;-36
2021/11/22 14:26:35;;;;;;;3.17;1.23;;;;;;;;;;5050902;28;20446;-36
2021/11/22 14:29:07;;;;;;;1.48;0.90;;;;;;;;;;5050876;28;20111;-36
2021/11/22 14:31:33;;;;;;;2.22;1.50;;;;;;;;;;5050755;28;20083;-36
2021/11/22 14:34:08;;;;;;;3.70;1.63;;;;;;;;;;5051066;28;20284;-36